Time;durP1;ratioP1;P1;durP2;ratioP2;P2;SDS_P1;SDS_P2;PMS_P1;PMS_P2;Temp;Humidity;BMP_temperature;BMP_pressure;BME280_temperature;BME280_humidity;BME280_pressure;Samples;Min_cycle;Max_cycle;Signal;HPM_P1;HPM_P2
2023/12/30 00:00:23;;;;;;;2.55;0.82;;;;;;;10.95;100.00;97062.56;5025992;28;20052;-80
2023/12/30 00:02:50;;;;;;;1.63;0.75;;;;;;;11.01;100.00;97089.13;5065720;28;20140;-80
2023/12/30 00:05:17;;;;;;;0.75;0.40;;;;;;;11.07;100.00;97068.84;5041094;28;20565;-80
2023/12/30 00:07:44;;;;;;;2.28;0.60;;;;;;;11.13;100.00;97093.81;5039031;28;20042;-80
2023/12/30 00:10:12;;;;;;;1.48;0.50;;;;;;;11.05;100.00;97087.34;5056046;28;20069;-80
2023/12/30 00:12:39;;;;;;;3.47;0.75;;;;;;;10.92;100.00;97079.47;5030526;28;20564;-80
2023/12/30 00:15:06;;;;;;;1.50;0.70;;;;;;;10.85;100.00;97077.31;5043470;28;20049;-80
2023/12/30 00:17:33;;;;;;;1.20;0.50;;;;;;;10.95;100.00;97076.91;5041895;28;20443;-80
2023/12/30 00:20:00;;;;;;;1.65;0.60;;;;;;;10.90;100.00;97092.56;5049254;28;20053;-80
2023/12/30 00:22:27;;;;;;;2.90;0.60;;;;;;;11.04;100.00;97074.13;5038389;28;20568;-80
2023/12/30 00:24:54;;;;;;;2.45;0.70;;;;;;;10.99;100.00;97071.63;5035728;28;20079;-79
2023/12/30 00:27:21;;;;;;;2.05;0.70;;;;;;;10.81;100.00;97073.69;5025949;28;20308;-81
2023/12/30 00:29:49;;;;;;;1.00;0.60;;;;;;;10.92;100.00;97080.25;5008839;28;20050;-80
2023/12/30 00:32:16;;;;;;;1.60;0.73;;;;;;;11.02;100.00;97062.84;5033067;28;20049;-80
2023/12/30 00:34:43;;;;;;;4.47;0.77;;;;;;;10.98;100.00;97084.38;5032127;28;20069;-80
2023/12/30 00:37:13;;;;;;;1.77;0.50;;;;;;;10.91;100.00;97083.31;5028381;28;20037;-81
2023/12/30 00:39:40;;;;;;;4.15;0.65;;;;;;;10.89;100.00;97082.84;5028080;28;20041;-80
2023/12/30 00:42:07;;;;;;;1.40;0.63;;;;;;;10.81;100.00;97067.47;5023175;28;20058;-80
2023/12/30 00:44:34;;;;;;;0.98;0.50;;;;;;;10.88;100.00;97068.53;5040444;28;20030;-80
2023/12/30 00:47:01;;;;;;;1.73;0.57;;;;;;;10.95;100.00;97070.69;5019888;28;20068;-80
2023/12/30 00:49:27;;;;;;;0.65;0.50;;;;;;;10.81;100.00;97060.13;5026466;28;20072;-81
2023/12/30 00:51:54;;;;;;;1.00;0.50;;;;;;;10.87;100.00;97055.28;5033404;28;20045;-81
2023/12/30 00:54:21;;;;;;;2.25;0.70;;;;;;;10.94;100.00;97055.59;5016212;28;20046;-80
2023/12/30 00:56:48;;;;;;;1.10;0.57;;;;;;;10.91;100.00;97065.16;5036001;28;20064;-81
2023/12/30 00:59:16;;;;;;;0.90;0.60;;;;;;;10.83;100.00;97076.03;5037748;28;20065;-80
2023/12/30 01:01:42;;;;;;;3.47;0.80;;;;;;;10.81;100.00;97081.00;5032141;28;20037;-80
2023/12/30 01:04:12;;;;;;;2.88;0.68;;;;;;;10.91;100.00;97073.28;5046516;28;20536;-80
2023/12/30 01:06:39;;;;;;;1.38;0.57;;;;;;;10.84;100.00;97086.53;5051235;28;20060;-80
2023/12/30 01:09:06;;;;;;;2.35;0.60;;;;;;;10.81;100.00;97114.28;5035706;28;20627;-81
2023/12/30 01:11:32;;;;;;;1.95;0.60;;;;;;;10.38;100.00;97092.88;5030287;28;20049;-80
2023/12/30 01:14:00;;;;;;;0.80;0.50;;;;;;;10.04;100.00;97120.84;5038802;28;20278;-79
2023/12/30 01:16:27;;;;;;;2.33;0.63;;;;;;;9.61;100.00;97103.94;5043733;28;20521;-79
2023/12/30 01:18:54;;;;;;;1.42;0.75;;;;;;;9.57;100.00;97110.31;5041231;28;20064;-78
2023/12/30 01:21:21;;;;;;;2.67;0.80;;;;;;;9.43;100.00;97123.19;5034973;28;20049;-80
2023/12/30 01:23:48;;;;;;;1.75;0.70;;;;;;;9.28;100.00;97124.50;5027694;28;20622;-80
2023/12/30 01:26:14;;;;;;;2.97;1.15;;;;;;;9.16;100.00;97113.53;5029806;28;20042;-81
2023/12/30 01:28:41;;;;;;;1.38;0.77;;;;;;;9.09;100.00;97135.59;5055144;28;20046;-81
2023/12/30 01:31:08;;;;;;;1.85;1.00;;;;;;;9.36;100.00;97129.09;5062536;28;20050;-80
2023/12/30 01:33:35;;;;;;;2.78;0.82;;;;;;;9.28;100.00;97109.09;5033361;28;20052;-81
2023/12/30 01:36:03;;;;;;;3.05;0.93;;;;;;;9.15;100.00;97112.75;5039578;28;20053;-81
2023/12/30 01:38:30;;;;;;;3.17;0.95;;;;;;;9.20;100.00;97100.97;5035729;28;20057;-79
2023/12/30 01:40:57;;;;;;;2.33;0.85;;;;;;;9.26;100.00;97114.03;5017012;28;20038;-79
2023/12/30 01:43:24;;;;;;;2.00;0.95;;;;;;;9.23;100.00;97117.34;5013222;28;20050;-80
2023/12/30 01:45:53;;;;;;;3.53;1.25;;;;;;;9.21;100.00;97122.25;5025908;28;20050;-80
2023/12/30 01:48:21;;;;;;;1.92;0.80;;;;;;;9.27;100.00;97126.41;5016784;28;20041;-80
2023/12/30 01:50:52;;;;;;;2.75;1.00;;;;;;;9.11;100.00;97125.28;5029332;28;20497;-80
2023/12/30 01:53:19;;;;;;;7.43;1.00;;;;;;;9.17;100.00;97132.13;5020207;28;20583;-80
2023/12/30 01:55:50;;;;;;;1.63;1.00;;;;;;;9.21;100.00;97119.56;5044935;28;20052;-79
2023/12/30 01:58:18;;;;;;;1.90;0.73;;;;;;;9.37;100.00;97126.06;5032113;28;20052;-80
2023/12/30 02:00:49;;;;;;;0.85;0.70;;;;;;;9.45;100.00;97120.97;5014098;28;20034;-80
2023/12/30 02:03:17;;;;;;;1.73;0.80;;;;;;;9.53;100.00;97112.88;5008694;28;20037;-80
2023/12/30 02:05:47;;;;;;;2.67;0.98;;;;;;;9.58;100.00;97126.19;5044198;28;20048;-81
2023/12/30 02:08:18;;;;;;;3.17;0.88;;;;;;;9.46;100.00;97123.38;5031915;28;20049;-81
2023/12/30 02:10:45;;;;;;;1.83;0.70;;;;;;;9.54;100.00;97116.38;5036886;28;20050;-80
2023/12/30 02:13:14;;;;;;;2.78;0.90;;;;;;;9.55;100.00;97107.16;5025173;28;20061;-81
2023/12/30 02:15:41;;;;;;;1.45;0.70;;;;;;;9.53;100.00;97093.16;5030943;28;20049;-81
2023/12/30 02:18:08;;;;;;;1.80;0.90;;;;;;;9.64;100.00;97107.91;5031365;28;20044;-81
2023/12/30 02:20:35;;;;;;;2.88;0.70;;;;;;;9.72;100.00;97110.59;5034475;28;20458;-80
2023/12/30 02:23:03;;;;;;;2.50;0.75;;;;;;;9.58;100.00;97103.78;5010883;28;20080;-81
2023/12/30 02:25:30;;;;;;;0.77;0.60;;;;;;;9.58;100.00;97098.38;5017830;28;20058;-79
2023/12/30 02:27:57;;;;;;;4.13;0.88;;;;;;;9.61;100.00;97106.66;5018923;28;20052;-79
2023/12/30 02:30:24;;;;;;;1.25;0.70;;;;;;;9.45;100.00;97116.38;5032707;28;20069;-80
2023/12/30 02:32:56;;;;;;;2.85;0.75;;;;;;;9.63;100.00;97104.41;5040253;28;20049;-79
2023/12/30 02:35:24;;;;;;;1.17;0.65;;;;;;;9.61;100.00;97105.84;5018015;28;20053;-80
2023/12/30 02:37:51;;;;;;;3.63;0.70;;;;;;;9.59;100.00;97103.47;5035526;28;20629;-82
2023/12/30 02:40:18;;;;;;;1.52;0.60;;;;;;;9.61;100.00;97103.94;5024304;28;20037;-79
2023/12/30 02:42:45;;;;;;;2.53;0.70;;;;;;;9.65;100.00;97102.19;5032467;28;20132;-79
2023/12/30 02:45:12;;;;;;;1.50;0.45;;;;;;;9.68;100.00;97098.84;5031674;28;20045;-81
2023/12/30 02:47:39;;;;;;;0.70;0.47;;;;;;;9.74;100.00;97104.88;5049013;28;20061;-80
2023/12/30 02:50:07;;;;;;;1.13;0.65;;;;;;;9.59;100.00;97095.38;5030813;28;20449;-80
2023/12/30 02:52:33;;;;;;;4.05;0.82;;;;;;;9.60;100.00;97115.09;5027312;28;20042;-80
2023/12/30 02:55:01;;;;;;;3.38;0.70;;;;;;;9.50;100.00;97107.31;5037070;28;20050;-81
2023/12/30 02:57:28;;;;;;;1.85;0.60;;;;;;;9.50;100.00;97126.22;5031326;28;20105;-80
2023/12/30 02:59:55;;;;;;;3.03;0.52;;;;;;;9.62;100.00;97129.06;5028023;28;20081;-81
2023/12/30 03:02:23;;;;;;;1.00;0.70;;;;;;;9.44;100.00;97122.09;5030459;28;20495;-80
2023/12/30 03:04:51;;;;;;;1.92;0.50;;;;;;;9.56;100.00;97133.03;5029342;28;20074;-80
2023/12/30 03:07:19;;;;;;;2.90;0.75;;;;;;;9.53;100.00;97118.25;5039705;28;20038;-81
2023/12/30 03:09:45;;;;;;;1.65;0.45;;;;;;;9.63;100.00;97119.81;5028059;28;20105;-81
2023/12/30 03:12:14;;;;;;;3.22;0.60;;;;;;;9.58;100.00;97118.09;5044093;28;20056;-82
2023/12/30 03:14:41;;;;;;;1.77;0.70;;;;;;;9.54;100.00;97110.97;5039602;28;20049;-82
2023/12/30 03:17:08;;;;;;;0.88;0.40;;;;;;;9.56;100.00;97120.34;5026371;28;20140;-81
2023/12/30 03:19:36;;;;;;;2.97;0.50;;;;;;;9.48;100.00;97109.53;5043001;28;20072;-81
2023/12/30 03:22:03;;;;;;;2.38;0.60;;;;;;;9.59;100.00;97122.41;5043332;28;20041;-81
2023/12/30 03:24:30;;;;;;;2.38;0.68;;;;;;;9.71;100.00;97125.22;5047255;28;20057;-82
2023/12/30 03:26:59;;;;;;;0.60;0.40;;;;;;;9.71;100.00;97122.53;5056901;28;20051;-81
2023/12/30 03:29:26;;;;;;;2.85;0.50;;;;;;;9.92;100.00;97125.34;5050925;28;20109;-82
2023/12/30 03:31:54;;;;;;;0.70;0.40;;;;;;;9.81;100.00;97132.19;5039537;28;20038;-81
2023/12/30 03:34:21;;;;;;;1.52;0.50;;;;;;;9.94;100.00;97128.50;5043056;28;20049;-81
2023/12/30 03:36:48;;;;;;;2.08;0.60;;;;;;;9.86;100.00;97130.13;5048974;28;20042;-81
2023/12/30 03:39:15;;;;;;;0.77;0.38;;;;;;;9.91;100.00;97127.25;5032168;28;20500;-82
2023/12/30 03:41:42;;;;;;;2.40;0.50;;;;;;;9.93;100.00;97129.63;5021028;28;20068;-81
2023/12/30 03:44:09;;;;;;;3.85;0.60;;;;;;;10.02;100.00;97135.78;5026930;28;20045;-81
2023/12/30 03:46:36;;;;;;;2.83;0.50;;;;;;;9.95;100.00;97128.19;5036448;28;20227;-81
2023/12/30 03:49:03;;;;;;;1.83;0.50;;;;;;;10.04;100.00;97126.25;5016319;28;20046;-80
2023/12/30 03:51:30;;;;;;;2.13;0.50;;;;;;;9.97;100.00;97123.25;5016491;28;20504;-81
2023/12/30 03:53:56;;;;;;;0.77;0.50;;;;;;;9.91;100.00;97112.94;5035909;28;20049;-81
2023/12/30 03:56:23;;;;;;;1.80;0.43;;;;;;;10.00;100.00;97114.50;5027468;28;20038;-81
2023/12/30 03:58:50;;;;;;;0.80;0.35;;;;;;;9.90;100.00;97108.66;5027319;28;20049;-81
2023/12/30 04:01:17;;;;;;;0.95;0.45;;;;;;;10.04;100.00;97107.31;5039050;28;20081;-81
2023/12/30 04:03:45;;;;;;;1.35;0.32;;;;;;;10.10;100.00;97116.03;5030581;28;20045;-80
2023/12/30 04:06:18;;;;;;;1.02;0.47;;;;;;;9.98;100.00;97110.53;5057356;28;20503;-79
2023/12/30 04:08:44;;;;;;;2.30;0.52;;;;;;;9.91;100.00;97113.72;5028204;28;20815;-80
2023/12/30 04:11:11;;;;;;;1.75;0.60;;;;;;;9.70;100.00;97128.25;5036268;28;20577;-79
2023/12/30 04:13:38;;;;;;;1.75;0.60;;;;;;;9.52;100.00;97141.00;5069480;28;20059;-79
2023/12/30 04:16:06;;;;;;;0.75;0.30;;;;;;;9.34;100.00;97174.56;5031780;28;20064;-78
2023/12/30 04:18:33;;;;;;;2.63;0.40;;;;;;;9.26;100.00;97164.53;5020464;28;20412;-80
2023/12/30 04:21:00;;;;;;;2.03;0.55;;;;;;;8.98;100.00;97188.31;5037368;28;20060;-78
2023/12/30 04:23:27;;;;;;;1.50;0.50;;;;;;;8.27;100.00;97183.34;5044582;28;20045;-81
2023/12/30 04:25:54;;;;;;;0.73;0.30;;;;;;;8.24;100.00;97197.41;5039400;28;20044;-81
2023/12/30 04:28:21;;;;;;;2.25;0.30;;;;;;;8.22;100.00;97205.00;5031104;28;20484;-81
2023/12/30 04:30:48;;;;;;;0.40;0.30;;;;;;;8.25;100.00;97190.91;5026389;28;20049;-81
2023/12/30 04:33:15;;;;;;;1.75;0.65;;;;;;;8.32;100.00;97192.09;5062446;28;20124;-81
2023/12/30 04:35:42;;;;;;;2.60;0.50;;;;;;;8.42;100.00;97191.81;5038033;28;20447;-80
2023/12/30 04:38:09;;;;;;;3.58;0.68;;;;;;;8.45;100.00;97211.97;5054816;28;20041;-81
2023/12/30 04:40:35;;;;;;;1.60;0.68;;;;;;;8.51;100.00;97203.44;5037391;28;20052;-80
2023/12/30 04:43:02;;;;;;;3.47;0.60;;;;;;;8.58;100.00;97217.28;5025992;28;20046;-81
2023/12/30 04:45:30;;;;;;;2.10;0.50;;;;;;;8.65;100.00;97209.50;5028909;28;20175;-81
2023/12/30 04:47:57;;;;;;;1.60;0.60;;;;;;;8.64;100.00;97202.53;5006919;28;20096;-81
2023/12/30 04:50:25;;;;;;;2.00;0.60;;;;;;;8.66;100.00;97205.72;5028393;28;20045;-82
2023/12/30 04:52:52;;;;;;;0.90;0.40;;;;;;;8.66;100.00;97189.53;5021766;28;20065;-82
2023/12/30 04:55:20;;;;;;;3.03;0.70;;;;;;;8.81;100.00;97200.97;5043564;28;20078;-81
2023/12/30 04:57:47;;;;;;;1.95;0.47;;;;;;;8.71;100.00;97188.59;5040653;28;20041;-81
2023/12/30 05:00:16;;;;;;;5.45;0.75;;;;;;;8.77;100.00;97198.13;5040057;28;20060;-82
2023/12/30 05:02:46;;;;;;;1.40;0.47;;;;;;;8.94;100.00;97200.06;5030498;28;20073;-81
2023/12/30 05:05:13;;;;;;;2.90;0.50;;;;;;;8.98;100.00;97214.53;5049925;28;20073;-82
2023/12/30 05:07:40;;;;;;;1.27;0.40;;;;;;;8.99;100.00;97218.81;5036001;28;20037;-82
2023/12/30 05:10:09;;;;;;;1.52;0.60;;;;;;;8.94;100.00;97214.38;5048217;28;20072;-81
2023/12/30 05:12:36;;;;;;;3.70;0.60;;;;;;;8.87;100.00;97222.13;5053250;28;20057;-83
2023/12/30 05:15:03;;;;;;;1.30;0.47;;;;;;;8.98;100.00;97225.34;5059774;28;20033;-81
2023/12/30 05:17:31;;;;;;;2.15;0.40;;;;;;;9.21;100.00;97235.69;5046151;28;20540;-83
2023/12/30 05:19:58;;;;;;;2.30;0.43;;;;;;;9.27;100.00;97228.22;5033498;28;20520;-82
2023/12/30 05:22:25;;;;;;;1.92;0.50;;;;;;;9.19;100.00;97220.91;5015617;28;21562;-82
2023/12/30 05:24:52;;;;;;;2.28;0.52;;;;;;;9.20;100.00;97249.50;5017040;28;20045;-81
2023/12/30 05:27:19;;;;;;;2.15;0.40;;;;;;;9.09;100.00;97240.91;5018662;28;20069;-81
2023/12/30 05:29:45;;;;;;;2.92;0.50;;;;;;;8.93;100.00;97238.97;5017965;28;20062;-82
2023/12/30 05:32:12;;;;;;;1.33;0.60;;;;;;;8.91;100.00;97233.06;5041774;28;20029;-83
2023/12/30 05:34:39;;;;;;;1.50;0.50;;;;;;;8.90;100.00;97240.41;5022874;28;20045;-82
2023/12/30 05:37:06;;;;;;;3.50;0.60;;;;;;;8.93;100.00;97228.19;5020814;28;20523;-82
2023/12/30 05:39:33;;;;;;;6.85;0.93;;;;;;;8.84;100.00;97249.75;5022479;28;20049;-82
2023/12/30 05:41:59;;;;;;;4.10;0.60;;;;;;;8.98;100.00;97250.41;5021885;28;20053;-81
2023/12/30 05:44:26;;;;;;;1.73;0.50;;;;;;;9.15;100.00;97272.06;5025860;28;20384;-82
2023/12/30 05:46:53;;;;;;;5.97;0.80;;;;;;;8.53;100.00;97262.47;5044322;28;20068;-80
2023/12/30 05:49:20;;;;;;;5.50;0.80;;;;;;;8.49;100.00;97272.31;5030331;28;20041;-83
2023/12/30 05:51:47;;;;;;;5.40;0.88;;;;;;;8.39;100.00;97259.84;5053480;28;20041;-82
2023/12/30 05:54:13;;;;;;;5.20;0.50;;;;;;;8.50;100.00;97252.28;5041243;28;20048;-81
2023/12/30 05:56:40;;;;;;;2.95;0.60;;;;;;;8.67;100.00;97244.28;5041079;28;20507;-82
2023/12/30 05:59:07;;;;;;;2.70;0.50;;;;;;;8.66;100.00;97256.19;5028507;28;20042;-81
2023/12/30 06:01:34;;;;;;;1.58;0.50;;;;;;;8.63;100.00;97263.00;5043918;28;20128;-82
2023/12/30 06:04:01;;;;;;;7.03;0.80;;;;;;;8.53;100.00;97275.97;5033975;28;20583;-81
2023/12/30 06:06:29;;;;;;;2.33;0.73;;;;;;;8.66;100.00;97256.19;5020655;28;20052;-81
2023/12/30 06:08:58;;;;;;;6.55;0.65;;;;;;;8.51;100.00;97262.00;5041969;28;20033;-80
2023/12/30 06:11:25;;;;;;;3.72;0.50;;;;;;;8.66;100.00;97264.28;5038955;28;20053;-80
2023/12/30 06:13:52;;;;;;;3.45;1.13;;;;;;;8.73;100.00;97260.03;5039855;28;20076;-80
2023/12/30 06:16:19;;;;;;;2.33;0.60;;;;;;;8.77;100.00;97254.81;5042124;28;20511;-81
2023/12/30 06:18:46;;;;;;;1.15;0.50;;;;;;;8.76;100.00;97264.00;5038885;28;20682;-80
2023/12/30 06:21:13;;;;;;;3.70;0.80;;;;;;;8.82;100.00;97287.06;5035150;28;20052;-80
2023/12/30 06:23:39;;;;;;;1.77;0.52;;;;;;;8.95;100.00;97317.75;5042744;28;20099;-81
2023/12/30 06:26:06;;;;;;;3.67;0.60;;;;;;;8.13;100.00;97345.94;5030387;28;20045;-81
2023/12/30 06:28:33;;;;;;;1.17;0.38;;;;;;;6.92;100.00;97352.34;5013857;28;20080;-79
2023/12/30 06:31:00;;;;;;;1.17;0.40;;;;;;;5.41;100.00;97353.66;5050573;28;20083;-82
2023/12/30 06:33:26;;;;;;;4.75;0.50;;;;;;;5.37;100.00;97335.69;5035960;28;20064;-81
2023/12/30 06:35:53;;;;;;;2.85;0.30;;;;;;;5.67;100.00;97335.31;5042006;28;20053;-79
2023/12/30 06:38:20;;;;;;;1.85;0.43;;;;;;;5.76;100.00;97325.50;5047897;28;20045;-81
2023/12/30 06:40:47;;;;;;;0.43;0.20;;;;;;;5.97;100.00;97347.50;5046366;28;20045;-79
2023/12/30 06:43:14;;;;;;;1.38;0.50;;;;;;;6.17;100.00;97339.94;5048511;28;20122;-80
2023/12/30 06:45:41;;;;;;;0.35;0.20;;;;;;;6.17;100.00;97349.88;5050217;28;20056;-80
2023/12/30 06:48:08;;;;;;;0.75;0.40;;;;;;;6.17;100.00;97352.56;5031962;28;20065;-81
2023/12/30 06:50:35;;;;;;;4.07;0.43;;;;;;;6.32;100.00;97356.91;5036232;28;20086;-82
2023/12/30 06:53:02;;;;;;;2.20;0.40;;;;;;;6.47;100.00;97346.69;5033622;28;20057;-82
2023/12/30 06:55:29;;;;;;;5.05;0.40;;;;;;;6.33;100.00;97366.56;5012883;28;20053;-81
2023/12/30 06:58:08;;;;;;;1.67;0.40;;;;;;;6.34;100.00;97365.47;5027668;28;20433;-81
2023/12/30 07:00:35;;;;;;;4.50;0.90;;;;;;;6.42;100.00;97362.13;5037114;28;20132;-81
2023/12/30 07:03:03;;;;;;;0.82;0.50;;;;;;;6.41;100.00;97357.81;5036021;28;20415;-80
2023/12/30 07:05:35;;;;;;;1.85;0.40;;;;;;;6.52;100.00;97359.25;5036395;28;20046;-81
2023/12/30 07:08:02;;;;;;;4.07;0.50;;;;;;;9.55;100.00;97374.66;5038315;28;20061;-81
2023/12/30 07:10:29;;;;;;;2.97;0.40;;;;;;;8.61;100.00;97394.72;5035674;28;20080;-81
2023/12/30 07:12:56;;;;;;;2.42;0.55;;;;;;;8.23;100.00;97385.38;5044662;28;20574;-80
2023/12/30 07:15:23;;;;;;;5.55;0.80;;;;;;;8.04;100.00;97382.03;5045350;28;20049;-81
2023/12/30 07:17:50;;;;;;;2.63;0.47;;;;;;;8.20;100.00;97377.91;5035092;28;20058;-80
2023/12/30 07:20:17;;;;;;;2.78;0.52;;;;;;;8.27;100.00;97382.88;5044673;28;20038;-78
2023/12/30 07:22:43;;;;;;;1.02;0.43;;;;;;;8.33;100.00;97381.66;5038663;28;20049;-80
2023/12/30 07:25:11;;;;;;;1.55;0.45;;;;;;;8.35;100.00;97384.84;5047294;28;20045;-80
2023/12/30 07:27:37;;;;;;;2.80;0.60;;;;;;;8.53;100.00;97403.56;5044878;28;20415;-79
2023/12/30 07:30:05;;;;;;;3.42;0.50;;;;;;;8.43;100.00;97414.59;5038167;28;20069;-79
2023/12/30 07:32:32;;;;;;;1.15;0.50;;;;;;;8.64;100.00;97434.59;5035360;28;20045;-79
2023/12/30 07:34:59;;;;;;;2.55;0.50;;;;;;;8.74;100.00;97438.94;5035700;28;20045;-79
2023/12/30 07:37:27;;;;;;;2.35;0.50;;;;;;;8.62;100.00;97427.91;5052451;28;20042;-79
2023/12/30 07:39:54;;;;;;;2.67;0.80;;;;;;;8.24;100.00;97435.50;5031307;28;20049;-79
2023/12/30 07:42:21;;;;;;;1.45;0.80;;;;;;;8.23;100.00;97427.72;5017037;28;20112;-80
2023/12/30 07:44:51;;;;;;;1.45;0.68;;;;;;;8.30;100.00;97420.03;5029978;28;20061;-79
2023/12/30 07:47:19;;;;;;;1.83;0.60;;;;;;;8.16;100.00;97433.50;5027507;28;20107;-80
2023/12/30 07:49:49;;;;;;;4.28;0.70;;;;;;;8.21;100.00;97424.53;5033002;28;20625;-79
2023/12/30 07:52:16;;;;;;;3.88;0.63;;;;;;;8.27;100.00;97431.41;5025978;28;20080;-79
2023/12/30 07:54:43;;;;;;;2.83;0.50;;;;;;;8.18;100.00;97450.22;5035339;28;20137;-80
2023/12/30 07:57:10;;;;;;;2.65;0.63;;;;;;;8.15;100.00;97437.34;5037655;28;20046;-79
2023/12/30 07:59:36;;;;;;;1.95;0.68;;;;;;;8.17;100.00;97448.59;5039894;28;20057;-79
2023/12/30 08:02:03;;;;;;;4.68;0.75;;;;;;;8.07;100.00;97454.22;5030590;28;20049;-80
2023/12/30 08:04:30;;;;;;;4.70;0.82;;;;;;;8.07;100.00;97448.81;5027951;28;20049;-81
2023/12/30 08:06:57;;;;;;;3.08;0.60;;;;;;;8.49;100.00;97467.31;5026278;28;20050;-79
2023/12/30 08:09:24;;;;;;;3.45;0.80;;;;;;;9.24;100.00;97478.13;5037475;28;20076;-82
2023/12/30 08:11:50;;;;;;;3.67;0.70;;;;;;;8.93;100.00;97447.59;5031470;28;20507;-81
2023/12/30 08:14:28;;;;;;;2.00;0.70;;;;;;;8.24;100.00;97467.84;5037574;28;20049;-82
2023/12/30 08:16:56;;;;;;;3.20;0.90;;;;;;;8.18;100.00;97470.97;5027300;28;20053;-82
2023/12/30 08:19:22;;;;;;;6.05;0.50;;;;;;;8.12;100.00;97454.91;5035015;28;20056;-80
2023/12/30 08:21:50;;;;;;;3.53;0.68;;;;;;;8.53;100.00;97452.13;5030731;28;20049;-80
2023/12/30 08:24:19;;;;;;;1.90;0.70;;;;;;;8.82;100.00;97446.28;5033956;28;20053;-80
2023/12/30 08:26:46;;;;;;;3.00;0.65;;;;;;;8.77;100.00;97449.91;5029797;28;20057;-80
2023/12/30 08:29:15;;;;;;;2.95;0.70;;;;;;;8.96;100.00;97462.41;5039909;28;20057;-80
2023/12/30 08:31:45;;;;;;;5.35;0.88;;;;;;;8.99;100.00;97464.47;5032997;28;20041;-80
2023/12/30 08:34:14;;;;;;;2.75;0.75;;;;;;;9.19;100.00;97475.56;5031442;28;20045;-78
2023/12/30 08:36:42;;;;;;;1.70;0.85;;;;;;;9.05;100.00;97455.97;5021550;28;20053;-80
2023/12/30 08:39:10;;;;;;;3.72;0.88;;;;;;;9.29;100.00;97469.13;5031029;28;20132;-79
2023/12/30 08:41:37;;;;;;;3.13;0.85;;;;;;;9.20;100.00;97457.47;5050329;28;20109;-81
2023/12/30 08:44:03;;;;;;;5.00;0.75;;;;;;;9.00;100.00;97456.09;5043142;28;20128;-81
2023/12/30 08:46:30;;;;;;;4.72;0.60;;;;;;;9.08;100.00;97468.84;5031116;28;20049;-80
2023/12/30 08:48:57;;;;;;;4.03;0.93;;;;;;;9.03;100.00;97470.88;5029756;28;20045;-79
2023/12/30 08:51:25;;;;;;;4.80;0.93;;;;;;;9.20;100.00;97463.66;5039575;28;20072;-80
2023/12/30 08:53:53;;;;;;;1.50;0.82;;;;;;;9.31;100.00;97472.31;5024835;28;20635;-82
2023/12/30 08:56:31;;;;;;;7.20;0.90;;;;;;;9.39;100.00;97469.63;5032555;28;20048;-81
2023/12/30 08:58:57;;;;;;;2.70;1.00;;;;;;;9.30;100.00;97465.28;5027396;28;20084;-79
2023/12/30 09:01:24;;;;;;;3.70;1.00;;;;;;;9.27;100.00;97471.31;5030201;28;20412;-77
2023/12/30 09:03:51;;;;;;;1.52;0.75;;;;;;;9.40;100.00;97473.13;5030454;28;20050;-76
2023/12/30 09:06:18;;;;;;;3.85;0.63;;;;;;;9.42;100.00;97467.44;5027019;28;20045;-80
2023/12/30 09:08:45;;;;;;;8.93;1.13;;;;;;;9.26;100.00;97461.63;5028273;28;20068;-77
2023/12/30 09:11:22;;;;;;;5.55;0.80;;;;;;;9.58;100.00;97472.09;5021387;28;20054;-80
2023/12/30 09:13:51;;;;;;;5.95;1.17;;;;;;;9.69;100.00;97483.44;5030364;28;20044;-79
2023/12/30 09:16:18;;;;;;;5.20;1.25;;;;;;;9.53;100.00;97474.13;5031156;28;20069;-80
2023/12/30 09:18:46;;;;;;;8.43;1.10;;;;;;;9.66;100.00;97473.25;5062161;28;20042;-79
2023/12/30 09:21:13;;;;;;;8.15;1.10;;;;;;;9.67;100.00;97482.94;5041402;28;20041;-79
2023/12/30 09:23:40;;;;;;;4.55;0.85;;;;;;;9.73;100.00;97487.88;5034212;28;20091;-79
2023/12/30 09:26:09;;;;;;;2.85;1.00;;;;;;;9.74;100.00;97469.78;5033589;28;20053;-78
2023/12/30 09:28:36;;;;;;;7.38;0.85;;;;;;;9.99;100.00;97487.97;5003411;28;20261;-79
2023/12/30 09:31:03;;;;;;;3.60;0.73;;;;;;;9.62;100.00;97467.69;5038931;28;20505;-79
2023/12/30 09:33:30;;;;;;;5.15;1.10;;;;;;;9.84;100.00;97474.88;5033248;28;20052;-79
2023/12/30 09:35:57;;;;;;;6.68;0.95;;;;;;;9.88;100.00;97483.97;5042640;28;20056;-79
2023/12/30 09:38:25;;;;;;;1.55;0.55;;;;;;;10.05;100.00;97486.72;5035290;28;20424;-79
2023/12/30 09:40:54;;;;;;;7.53;1.05;;;;;;;10.11;100.00;97490.09;5018147;28;20582;-79
2023/12/30 09:43:26;;;;;;;3.67;0.70;;;;;;;10.06;100.00;97468.59;5047957;28;20037;-78
2023/12/30 09:45:55;;;;;;;4.22;0.80;;;;;;;10.20;100.00;97466.56;5046953;28;20339;-80
2023/12/30 09:48:25;;;;;;;5.15;0.70;;;;;;;10.23;100.00;97465.94;5032914;28;22291;-78
2023/12/30 09:50:56;;;;;;;5.10;0.90;;;;;;;10.28;100.00;97458.47;5039640;28;20333;-79
2023/12/30 09:53:24;;;;;;;9.00;0.93;;;;;;;10.60;100.00;97465.34;5053539;28;20041;-78
2023/12/30 09:55:52;;;;;;;4.65;0.90;;;;;;;10.71;100.00;97461.16;5050056;28;20527;-79
2023/12/30 09:58:22;;;;;;;4.45;0.82;;;;;;;10.91;100.00;97471.38;5034224;28;20127;-79
2023/12/30 10:00:49;;;;;;;4.47;1.20;;;;;;;10.91;100.00;97476.78;5051130;28;20060;-80
2023/12/30 10:03:16;;;;;;;3.50;1.08;;;;;;;10.78;100.00;97466.94;5042314;28;20048;-78
2023/12/30 10:05:44;;;;;;;2.33;0.90;;;;;;;10.48;100.00;97474.06;5046481;28;20118;-78
2023/12/30 10:08:11;;;;;;;2.53;0.70;;;;;;;10.36;100.00;97467.72;5042543;28;20049;-80
2023/12/30 10:10:46;;;;;;;3.22;0.45;;;;;;;9.77;100.00;97480.75;5043425;28;20049;-79
2023/12/30 10:13:22;;;;;;;3.92;0.50;;;;;;;9.62;100.00;97478.50;5067148;28;20041;-79
2023/12/30 10:15:49;;;;;;;1.92;0.35;;;;;;;9.34;100.00;97487.91;5036933;28;20049;-78
2023/12/30 10:18:16;;;;;;;2.58;0.52;;;;;;;9.50;100.00;97488.28;5056224;28;20061;-76
2023/12/30 10:20:47;;;;;;;2.50;0.40;;;;;;;9.32;100.00;97493.59;5052992;28;20047;-76
2023/12/30 10:23:14;;;;;;;2.30;0.35;;;;;;;9.46;100.00;97500.81;5044858;28;20068;-76
2023/12/30 10:25:41;;;;;;;4.95;0.55;;;;;;;9.27;100.00;97493.72;5051941;28;20091;-78
2023/12/30 10:28:08;;;;;;;1.80;0.50;;;;;;;9.35;100.00;97501.09;5043050;28;20061;-78
2023/12/30 10:30:36;;;;;;;4.43;0.50;;;;;;;9.37;100.00;97506.16;5050345;28;20059;-79
2023/12/30 10:33:10;;;;;;;4.57;0.95;;;;;;;9.30;100.00;97506.63;5047419;28;20412;-78
2023/12/30 10:35:42;;;;;;;2.45;0.57;;;;;;;9.30;100.00;97503.91;5032397;28;20532;-79
2023/12/30 10:38:10;;;;;;;4.35;0.63;;;;;;;9.44;100.00;97501.13;5035401;28;20527;-77
2023/12/30 10:40:38;;;;;;;7.97;0.70;;;;;;;9.22;100.00;97507.38;5043733;28;20045;-77
2023/12/30 10:43:05;;;;;;;7.38;0.60;;;;;;;9.40;100.00;97514.47;5046638;28;20053;-76
2023/12/30 10:45:33;;;;;;;4.40;0.50;;;;;;;9.52;100.00;97505.78;5038221;28;20095;-76
2023/12/30 10:48:00;;;;;;;2.78;0.57;;;;;;;9.64;100.00;97506.00;5049877;28;20435;-77
2023/12/30 10:50:27;;;;;;;3.22;0.70;;;;;;;9.91;100.00;97491.47;5047161;28;20565;-77
2023/12/30 10:53:29;;;;;;;1.98;0.40;;;;;;;9.79;100.00;97505.56;5047035;28;20053;-78
2023/12/30 10:56:02;;;;;;;6.28;0.82;;;;;;;9.81;100.00;97499.84;5042794;28;20505;-78
2023/12/30 10:58:34;;;;;;;4.03;0.80;;;;;;;9.94;100.00;97507.84;5052105;28;20060;-77
2023/12/30 11:01:03;;;;;;;3.80;0.80;;;;;;;10.03;100.00;97510.59;5044935;28;20037;-77
2023/12/30 11:03:32;;;;;;;3.53;0.60;;;;;;;10.26;100.00;97508.59;5045242;28;20452;-78
2023/12/30 11:06:01;;;;;;;2.40;0.75;;;;;;;10.23;100.00;97512.72;5045061;28;20065;-78
2023/12/30 11:08:29;;;;;;;3.65;0.50;;;;;;;10.41;100.00;97500.81;5046066;28;20041;-79
2023/12/30 11:11:02;;;;;;;3.47;0.50;;;;;;;10.50;100.00;97498.91;5044107;28;20053;-77
2023/12/30 11:13:36;;;;;;;1.80;0.57;;;;;;;10.64;100.00;97496.84;5037001;28;20123;-78
2023/12/30 11:16:19;;;;;;;4.38;0.70;;;;;;;10.75;100.00;97504.66;5045362;28;20651;-78
2023/12/30 11:18:55;;;;;;;3.88;0.70;;;;;;;10.97;100.00;97499.88;5027408;28;20297;-78
2023/12/30 11:21:43;;;;;;;6.32;0.93;;;;;;;10.87;100.00;97511.03;5030297;28;20076;-77
2023/12/30 11:24:11;;;;;;;3.50;1.00;;;;;;;10.97;100.00;97512.63;5012587;28;20511;-77
2023/12/30 11:26:40;;;;;;;4.30;0.60;;;;;;;11.13;100.00;97497.47;5026777;28;20056;-79
2023/12/30 11:29:17;;;;;;;3.67;0.50;;;;;;;11.46;100.00;97500.44;5023658;28;20045;-77
2023/12/30 11:31:47;;;;;;;3.03;0.80;;;;;;;11.29;100.00;97506.69;5027059;28;20161;-77
2023/12/30 11:34:17;;;;;;;5.93;0.80;;;;;;;11.56;100.00;97500.06;5021211;28;20041;-78